sensor_id;sensor_type;location;lat;lon;timestamp;P1;durP1;ratioP1;P2;durP2;ratioP2
72388;SDS011;60566;48.062;9.930;2023-11-19T00:00:45;5.20;;;2.95;;
72388;SDS011;60566;48.062;9.930;2023-11-19T00:03:10;4.70;;;2.75;;
72388;SDS011;60566;48.062;9.930;2023-11-19T00:05:35;3.95;;;2.78;;
72388;SDS011;60566;48.062;9.930;2023-11-19T00:08:01;5.63;;;2.88;;
72388;SDS011;60566;48.062;9.930;2023-11-19T00:10:26;5.47;;;3.00;;
72388;SDS011;60566;48.062;9.930;2023-11-19T00:12:52;4.63;;;3.30;;
72388;SDS011;60566;48.062;9.930;2023-11-19T00:15:20;5.15;;;3.33;;
72388;SDS011;60566;48.062;9.930;2023-11-19T00:17:47;4.70;;;3.22;;
72388;SDS011;60566;48.062;9.930;2023-11-19T00:20:13;5.57;;;3.45;;
72388;SDS011;60566;48.062;9.930;2023-11-19T00:22:39;5.18;;;3.38;;
72388;SDS011;60566;48.062;9.930;2023-11-19T00:25:04;5.57;;;3.45;;
72388;SDS011;60566;48.062;9.930;2023-11-19T00:27:31;6.40;;;3.53;;
72388;SDS011;60566;48.062;9.930;2023-11-19T00:29:56;7.20;;;3.70;;
72388;SDS011;60566;48.062;9.930;2023-11-19T00:32:22;6.65;;;3.60;;
72388;SDS011;60566;48.062;9.930;2023-11-19T00:34:48;6.47;;;4.03;;
72388;SDS011;60566;48.062;9.930;2023-11-19T00:37:14;5.43;;;3.50;;
72388;SDS011;60566;48.062;9.930;2023-11-19T00:39:39;6.07;;;3.65;;
72388;SDS011;60566;48.062;9.930;2023-11-19T00:42:04;6.32;;;3.78;;
72388;SDS011;60566;48.062;9.930;2023-11-19T00:44:30;5.22;;;4.15;;
72388;SDS011;60566;48.062;9.930;2023-11-19T00:46:55;8.43;;;3.95;;
72388;SDS011;60566;48.062;9.930;2023-11-19T00:49:21;6.05;;;3.45;;
72388;SDS011;60566;48.062;9.930;2023-11-19T00:51:47;5.32;;;4.25;;
72388;SDS011;60566;48.062;9.930;2023-11-19T00:54:13;6.90;;;4.65;;
72388;SDS011;60566;48.062;9.930;2023-11-19T00:56:38;5.25;;;3.67;;
72388;SDS011;60566;48.062;9.930;2023-11-19T00:59:04;6.65;;;4.55;;
72388;SDS011;60566;48.062;9.930;2023-11-19T01:01:29;6.85;;;5.57;;
72388;SDS011;60566;48.062;9.930;2023-11-19T01:03:54;6.95;;;4.70;;
72388;SDS011;60566;48.062;9.930;2023-11-19T01:06:26;5.65;;;3.60;;
72388;SDS011;60566;48.062;9.930;2023-11-19T01:08:53;7.05;;;4.00;;
72388;SDS011;60566;48.062;9.930;2023-11-19T01:11:19;6.25;;;4.10;;
72388;SDS011;60566;48.062;9.930;2023-11-19T01:13:45;8.75;;;4.75;;
72388;SDS011;60566;48.062;9.930;2023-11-19T01:16:10;6.68;;;4.70;;
72388;SDS011;60566;48.062;9.930;2023-11-19T01:18:35;6.05;;;4.07;;
72388;SDS011;60566;48.062;9.930;2023-11-19T01:21:01;6.30;;;3.97;;
72388;SDS011;60566;48.062;9.930;2023-11-19T01:23:26;6.32;;;4.22;;
72388;SDS011;60566;48.062;9.930;2023-11-19T01:25:53;6.18;;;4.50;;
72388;SDS011;60566;48.062;9.930;2023-11-19T01:28:18;6.72;;;4.63;;
72388;SDS011;60566;48.062;9.930;2023-11-19T01:30:43;7.45;;;4.55;;
72388;SDS011;60566;48.062;9.930;2023-11-19T01:33:09;6.10;;;4.10;;
72388;SDS011;60566;48.062;9.930;2023-11-19T01:35:34;5.78;;;4.05;;
72388;SDS011;60566;48.062;9.930;2023-11-19T01:38:00;5.93;;;3.97;;
72388;SDS011;60566;48.062;9.930;2023-11-19T01:40:25;5.90;;;3.80;;
72388;SDS011;60566;48.062;9.930;2023-11-19T01:42:52;4.60;;;2.72;;
72388;SDS011;60566;48.062;9.930;2023-11-19T01:45:21;4.10;;;2.90;;
72388;SDS011;60566;48.062;9.930;2023-11-19T01:47:50;4.20;;;3.20;;
72388;SDS011;60566;48.062;9.930;2023-11-19T01:50:15;4.72;;;2.95;;
72388;SDS011;60566;48.062;9.930;2023-11-19T01:52:41;5.30;;;4.20;;
72388;SDS011;60566;48.062;9.930;2023-11-19T01:55:06;5.30;;;3.78;;
72388;SDS011;60566;48.062;9.930;2023-11-19T01:57:33;7.40;;;3.70;;
72388;SDS011;60566;48.062;9.930;2023-11-19T02:00:00;5.72;;;3.17;;
72388;SDS011;60566;48.062;9.930;2023-11-19T02:02:25;5.75;;;3.60;;
72388;SDS011;60566;48.062;9.930;2023-11-19T02:04:50;5.68;;;3.33;;
72388;SDS011;60566;48.062;9.930;2023-11-19T02:07:16;6.50;;;3.78;;
72388;SDS011;60566;48.062;9.930;2023-11-19T02:09:42;5.10;;;3.72;;
72388;SDS011;60566;48.062;9.930;2023-11-19T02:12:07;5.65;;;3.40;;
72388;SDS011;60566;48.062;9.930;2023-11-19T02:14:33;6.63;;;4.80;;
72388;SDS011;60566;48.062;9.930;2023-11-19T02:17:00;5.88;;;4.47;;
72388;SDS011;60566;48.062;9.930;2023-11-19T02:19:25;8.20;;;3.60;;
72388;SDS011;60566;48.062;9.930;2023-11-19T02:21:50;7.25;;;5.38;;
72388;SDS011;60566;48.062;9.930;2023-11-19T02:24:16;4.72;;;3.53;;
72388;SDS011;60566;48.062;9.930;2023-11-19T02:26:45;5.97;;;4.03;;
72388;SDS011;60566;48.062;9.930;2023-11-19T02:29:15;4.88;;;3.38;;
72388;SDS011;60566;48.062;9.930;2023-11-19T02:31:40;5.60;;;3.78;;
72388;SDS011;60566;48.062;9.930;2023-11-19T02:34:06;6.30;;;4.70;;
72388;SDS011;60566;48.062;9.930;2023-11-19T02:36:31;6.32;;;3.88;;
72388;SDS011;60566;48.062;9.930;2023-11-19T02:38:57;5.57;;;3.63;;
72388;SDS011;60566;48.062;9.930;2023-11-19T02:41:22;7.07;;;4.00;;
72388;SDS011;60566;48.062;9.930;2023-11-19T02:43:47;5.72;;;3.42;;
72388;SDS011;60566;48.062;9.930;2023-11-19T02:46:14;4.90;;;3.20;;
72388;SDS011;60566;48.062;9.930;2023-11-19T02:48:39;6.05;;;4.13;;
72388;SDS011;60566;48.062;9.930;2023-11-19T02:51:05;7.65;;;4.85;;
72388;SDS011;60566;48.062;9.930;2023-11-19T02:53:31;4.22;;;3.10;;
72388;SDS011;60566;48.062;9.930;2023-11-19T02:55:56;6.47;;;3.80;;
72388;SDS011;60566;48.062;9.930;2023-11-19T02:58:21;5.85;;;4.15;;
72388;SDS011;60566;48.062;9.930;2023-11-19T03:00:47;5.72;;;4.05;;
72388;SDS011;60566;48.062;9.930;2023-11-19T03:03:14;4.13;;;2.92;;
72388;SDS011;60566;48.062;9.930;2023-11-19T03:05:39;6.05;;;3.67;;
72388;SDS011;60566;48.062;9.930;2023-11-19T03:08:04;4.78;;;3.50;;
72388;SDS011;60566;48.062;9.930;2023-11-19T03:10:30;6.10;;;3.80;;
72388;SDS011;60566;48.062;9.930;2023-11-19T03:12:55;6.20;;;3.78;;
72388;SDS011;60566;48.062;9.930;2023-11-19T03:15:20;5.93;;;3.50;;
72388;SDS011;60566;48.062;9.930;2023-11-19T03:17:46;5.88;;;4.07;;
72388;SDS011;60566;48.062;9.930;2023-11-19T03:20:13;5.55;;;3.88;;
72388;SDS011;60566;48.062;9.930;2023-11-19T03:22:38;6.38;;;3.30;;
72388;SDS011;60566;48.062;9.930;2023-11-19T03:25:04;6.47;;;3.55;;
72388;SDS011;60566;48.062;9.930;2023-11-19T03:27:29;5.95;;;4.18;;
72388;SDS011;60566;48.062;9.930;2023-11-19T03:29:57;5.68;;;3.25;;
72388;SDS011;60566;48.062;9.930;2023-11-19T03:32:22;5.55;;;3.65;;
72388;SDS011;60566;48.062;9.930;2023-11-19T03:34:47;4.15;;;3.20;;
72388;SDS011;60566;48.062;9.930;2023-11-19T03:37:14;6.65;;;4.25;;
72388;SDS011;60566;48.062;9.930;2023-11-19T03:39:40;5.65;;;3.53;;
72388;SDS011;60566;48.062;9.930;2023-11-19T03:42:05;6.85;;;3.70;;
72388;SDS011;60566;48.062;9.930;2023-11-19T03:44:30;6.70;;;3.97;;
72388;SDS011;60566;48.062;9.930;2023-11-19T03:46:56;8.30;;;4.32;;
72388;SDS011;60566;48.062;9.930;2023-11-19T03:49:21;6.70;;;4.10;;
72388;SDS011;60566;48.062;9.930;2023-11-19T03:51:46;6.30;;;4.65;;
72388;SDS011;60566;48.062;9.930;2023-11-19T03:54:13;5.68;;;3.92;;
72388;SDS011;60566;48.062;9.930;2023-11-19T03:56:38;7.57;;;4.28;;
72388;SDS011;60566;48.062;9.930;2023-11-19T03:59:04;6.70;;;3.80;;
72388;SDS011;60566;48.062;9.930;2023-11-19T04:01:29;5.93;;;4.30;;
72388;SDS011;60566;48.062;9.930;2023-11-19T04:03:55;6.85;;;4.18;;
72388;SDS011;60566;48.062;9.930;2023-11-19T04:06:20;6.32;;;3.42;;
72388;SDS011;60566;48.062;9.930;2023-11-19T04:08:45;8.07;;;5.32;;
72388;SDS011;60566;48.062;9.930;2023-11-19T04:11:12;7.05;;;4.60;;
72388;SDS011;60566;48.062;9.930;2023-11-19T04:13:37;6.05;;;4.15;;
72388;SDS011;60566;48.062;9.930;2023-11-19T04:16:03;5.43;;;3.47;;
72388;SDS011;60566;48.062;9.930;2023-11-19T04:18:29;5.60;;;4.13;;
72388;SDS011;60566;48.062;9.930;2023-11-19T04:20:54;7.32;;;4.78;;
72388;SDS011;60566;48.062;9.930;2023-11-19T04:23:20;7.05;;;4.10;;
72388;SDS011;60566;48.062;9.930;2023-11-19T04:25:45;6.40;;;4.13;;
72388;SDS011;60566;48.062;9.930;2023-11-19T04:28:12;7.35;;;4.25;;
72388;SDS011;60566;48.062;9.930;2023-11-19T04:30:37;7.20;;;4.00;;
72388;SDS011;60566;48.062;9.930;2023-11-19T04:33:02;5.45;;;3.95;;
72388;SDS011;60566;48.062;9.930;2023-11-19T04:35:28;6.50;;;4.38;;
72388;SDS011;60566;48.062;9.930;2023-11-19T04:37:53;6.88;;;4.63;;
72388;SDS011;60566;48.062;9.930;2023-11-19T04:40:18;6.82;;;4.00;;
72388;SDS011;60566;48.062;9.930;2023-11-19T04:42:44;7.03;;;4.50;;
72388;SDS011;60566;48.062;9.930;2023-11-19T04:45:11;6.72;;;4.20;;
72388;SDS011;60566;48.062;9.930;2023-11-19T04:47:36;4.93;;;3.67;;
72388;SDS011;60566;48.062;9.930;2023-11-19T04:50:02;7.57;;;4.60;;
72388;SDS011;60566;48.062;9.930;2023-11-19T04:52:27;8.20;;;4.47;;
72388;SDS011;60566;48.062;9.930;2023-11-19T04:54:53;6.68;;;4.72;;
72388;SDS011;60566;48.062;9.930;2023-11-19T04:57:18;6.28;;;4.25;;
72388;SDS011;60566;48.062;9.930;2023-11-19T04:59:43;6.40;;;3.85;;
72388;SDS011;60566;48.062;9.930;2023-11-19T05:02:10;6.18;;;4.13;;
72388;SDS011;60566;48.062;9.930;2023-11-19T05:04:36;6.43;;;4.63;;
72388;SDS011;60566;48.062;9.930;2023-11-19T05:07:01;6.00;;;3.83;;
72388;SDS011;60566;48.062;9.930;2023-11-19T05:09:27;6.88;;;4.75;;
72388;SDS011;60566;48.062;9.930;2023-11-19T05:11:52;9.18;;;5.03;;
72388;SDS011;60566;48.062;9.930;2023-11-19T05:14:18;6.00;;;4.32;;
72388;SDS011;60566;48.062;9.930;2023-11-19T05:16:43;5.88;;;4.30;;
72388;SDS011;60566;48.062;9.930;2023-11-19T05:19:10;7.55;;;5.03;;
72388;SDS011;60566;48.062;9.930;2023-11-19T05:21:35;5.72;;;3.80;;
72388;SDS011;60566;48.062;9.930;2023-11-19T05:24:00;6.40;;;4.32;;
72388;SDS011;60566;48.062;9.930;2023-11-19T05:26:26;7.13;;;4.45;;
72388;SDS011;60566;48.062;9.930;2023-11-19T05:28:51;6.90;;;4.47;;
72388;SDS011;60566;48.062;9.930;2023-11-19T05:31:17;6.95;;;4.70;;
72388;SDS011;60566;48.062;9.930;2023-11-19T05:33:43;6.22;;;4.40;;
72388;SDS011;60566;48.062;9.930;2023-11-19T05:36:10;6.05;;;4.10;;
72388;SDS011;60566;48.062;9.930;2023-11-19T05:38:36;5.50;;;3.85;;
72388;SDS011;60566;48.062;9.930;2023-11-19T05:41:02;5.35;;;3.67;;
72388;SDS011;60566;48.062;9.930;2023-11-19T05:43:27;5.15;;;3.58;;
72388;SDS011;60566;48.062;9.930;2023-11-19T05:45:52;5.53;;;4.35;;
72388;SDS011;60566;48.062;9.930;2023-11-19T05:48:18;6.85;;;4.38;;
72388;SDS011;60566;48.062;9.930;2023-11-19T05:50:43;6.35;;;3.88;;
72388;SDS011;60566;48.062;9.930;2023-11-19T05:53:10;6.57;;;4.28;;
72388;SDS011;60566;48.062;9.930;2023-11-19T05:55:35;7.05;;;4.20;;
72388;SDS011;60566;48.062;9.930;2023-11-19T05:58:01;5.53;;;3.50;;
72388;SDS011;60566;48.062;9.930;2023-11-19T06:00:26;5.72;;;4.22;;
72388;SDS011;60566;48.062;9.930;2023-11-19T06:02:52;5.85;;;4.15;;
72388;SDS011;60566;48.062;9.930;2023-11-19T06:05:17;5.53;;;3.60;;
72388;SDS011;60566;48.062;9.930;2023-11-19T06:07:42;6.55;;;4.20;;
72388;SDS011;60566;48.062;9.930;2023-11-19T06:10:09;5.78;;;3.90;;
72388;SDS011;60566;48.062;9.930;2023-11-19T06:12:35;6.72;;;4.10;;
72388;SDS011;60566;48.062;9.930;2023-11-19T06:15:00;5.82;;;3.90;;
72388;SDS011;60566;48.062;9.930;2023-11-19T06:17:26;5.93;;;4.20;;
72388;SDS011;60566;48.062;9.930;2023-11-19T06:19:51;5.43;;;4.00;;
72388;SDS011;60566;48.062;9.930;2023-11-19T06:22:16;6.32;;;3.88;;
72388;SDS011;60566;48.062;9.930;2023-11-19T06:24:42;6.38;;;3.72;;
72388;SDS011;60566;48.062;9.930;2023-11-19T06:27:09;6.22;;;3.80;;
72388;SDS011;60566;48.062;9.930;2023-11-19T06:29:34;4.95;;;3.78;;
72388;SDS011;60566;48.062;9.930;2023-11-19T06:31:59;5.18;;;3.60;;
72388;SDS011;60566;48.062;9.930;2023-11-19T06:34:25;6.07;;;3.95;;
72388;SDS011;60566;48.062;9.930;2023-11-19T06:36:50;5.60;;;3.60;;
72388;SDS011;60566;48.062;9.930;2023-11-19T06:39:15;6.38;;;4.63;;
72388;SDS011;60566;48.062;9.930;2023-11-19T06:41:44;6.28;;;4.88;;
72388;SDS011;60566;48.062;9.930;2023-11-19T06:44:11;5.72;;;3.40;;
72388;SDS011;60566;48.062;9.930;2023-11-19T06:46:36;5.80;;;4.22;;
72388;SDS011;60566;48.062;9.930;2023-11-19T06:49:01;7.05;;;4.28;;
72388;SDS011;60566;48.062;9.930;2023-11-19T06:51:27;6.25;;;3.85;;
72388;SDS011;60566;48.062;9.930;2023-11-19T06:53:52;6.10;;;4.35;;
72388;SDS011;60566;48.062;9.930;2023-11-19T06:56:18;9.25;;;4.38;;
72388;SDS011;60566;48.062;9.930;2023-11-19T06:58:45;5.20;;;3.22;;
72388;SDS011;60566;48.062;9.930;2023-11-19T07:01:11;5.70;;;4.03;;
72388;SDS011;60566;48.062;9.930;2023-11-19T07:03:37;5.95;;;3.47;;
72388;SDS011;60566;48.062;9.930;2023-11-19T07:06:02;5.85;;;3.90;;
72388;SDS011;60566;48.062;9.930;2023-11-19T07:08:28;5.07;;;3.15;;
72388;SDS011;60566;48.062;9.930;2023-11-19T07:10:53;5.13;;;3.50;;
72388;SDS011;60566;48.062;9.930;2023-11-19T07:13:19;5.65;;;3.95;;
72388;SDS011;60566;48.062;9.930;2023-11-19T07:15:44;6.63;;;3.38;;
72388;SDS011;60566;48.062;9.930;2023-11-19T07:18:11;8.82;;;5.05;;
72388;SDS011;60566;48.062;9.930;2023-11-19T07:20:36;6.45;;;4.32;;
72388;SDS011;60566;48.062;9.930;2023-11-19T07:23:05;6.15;;;4.38;;
72388;SDS011;60566;48.062;9.930;2023-11-19T07:25:30;5.47;;;3.42;;
72388;SDS011;60566;48.062;9.930;2023-11-19T07:27:55;5.80;;;3.75;;
72388;SDS011;60566;48.062;9.930;2023-11-19T07:30:21;5.75;;;4.10;;
72388;SDS011;60566;48.062;9.930;2023-11-19T07:32:47;7.00;;;4.65;;
72388;SDS011;60566;48.062;9.930;2023-11-19T07:35:14;7.30;;;5.15;;
72388;SDS011;60566;48.062;9.930;2023-11-19T07:37:40;6.35;;;4.45;;
72388;SDS011;60566;48.062;9.930;2023-11-19T07:40:05;5.70;;;4.63;;
72388;SDS011;60566;48.062;9.930;2023-11-19T07:42:32;6.40;;;4.03;;
72388;SDS011;60566;48.062;9.930;2023-11-19T07:44:57;5.18;;;3.90;;
72388;SDS011;60566;48.062;9.930;2023-11-19T07:47:22;5.82;;;3.72;;
72388;SDS011;60566;48.062;9.930;2023-11-19T07:49:48;5.30;;;3.83;;
72388;SDS011;60566;48.062;9.930;2023-11-19T07:52:15;5.40;;;4.00;;
72388;SDS011;60566;48.062;9.930;2023-11-19T07:54:40;5.43;;;3.88;;
72388;SDS011;60566;48.062;9.930;2023-11-19T07:57:05;5.95;;;4.47;;
72388;SDS011;60566;48.062;9.930;2023-11-19T07:59:31;6.90;;;4.50;;
72388;SDS011;60566;48.062;9.930;2023-11-19T08:01:56;6.45;;;4.63;;
72388;SDS011;60566;48.062;9.930;2023-11-19T08:04:22;5.80;;;4.57;;
72388;SDS011;60566;48.062;9.930;2023-11-19T08:06:47;5.97;;;4.88;;
72388;SDS011;60566;48.062;9.930;2023-11-19T08:09:14;7.05;;;3.97;;
72388;SDS011;60566;48.062;9.930;2023-11-19T08:11:40;6.28;;;4.18;;
72388;SDS011;60566;48.062;9.930;2023-11-19T08:14:05;5.75;;;4.50;;
72388;SDS011;60566;48.062;9.930;2023-11-19T08:16:30;5.60;;;3.85;;
72388;SDS011;60566;48.062;9.930;2023-11-19T08:18:56;6.18;;;3.95;;
72388;SDS011;60566;48.062;9.930;2023-11-19T08:21:21;6.80;;;4.20;;
72388;SDS011;60566;48.062;9.930;2023-11-19T08:23:47;5.47;;;3.13;;
72388;SDS011;60566;48.062;9.930;2023-11-19T08:26:14;5.60;;;4.00;;
72388;SDS011;60566;48.062;9.930;2023-11-19T08:28:39;5.32;;;4.00;;
72388;SDS011;60566;48.062;9.930;2023-11-19T08:31:05;5.70;;;3.28;;
72388;SDS011;60566;48.062;9.930;2023-11-19T08:33:30;7.65;;;4.22;;
72388;SDS011;60566;48.062;9.930;2023-11-19T08:35:56;5.53;;;4.25;;
72388;SDS011;60566;48.062;9.930;2023-11-19T08:38:21;6.35;;;4.00;;
72388;SDS011;60566;48.062;9.930;2023-11-19T08:40:46;5.70;;;3.55;;
72388;SDS011;60566;48.062;9.930;2023-11-19T08:43:13;5.45;;;3.60;;
72388;SDS011;60566;48.062;9.930;2023-11-19T08:45:39;6.15;;;4.28;;
72388;SDS011;60566;48.062;9.930;2023-11-19T08:48:04;5.65;;;4.07;;
72388;SDS011;60566;48.062;9.930;2023-11-19T08:50:30;5.05;;;3.58;;
72388;SDS011;60566;48.062;9.930;2023-11-19T08:52:56;5.43;;;3.90;;
72388;SDS011;60566;48.062;9.930;2023-11-19T08:55:21;4.60;;;3.33;;
72388;SDS011;60566;48.062;9.930;2023-11-19T08:57:46;4.43;;;3.30;;
72388;SDS011;60566;48.062;9.930;2023-11-19T09:00:13;4.38;;;3.20;;
72388;SDS011;60566;48.062;9.930;2023-11-19T09:02:39;6.10;;;2.90;;
72388;SDS011;60566;48.062;9.930;2023-11-19T09:05:05;4.13;;;2.45;;
72388;SDS011;60566;48.062;9.930;2023-11-19T09:07:31;4.40;;;2.90;;
72388;SDS011;60566;48.062;9.930;2023-11-19T09:09:56;4.28;;;3.05;;
72388;SDS011;60566;48.062;9.930;2023-11-19T09:12:21;3.75;;;2.17;;
72388;SDS011;60566;48.062;9.930;2023-11-19T09:14:47;3.55;;;2.92;;
72388;SDS011;60566;48.062;9.930;2023-11-19T09:17:14;4.10;;;2.72;;
72388;SDS011;60566;48.062;9.930;2023-11-19T09:19:39;4.07;;;2.50;;
72388;SDS011;60566;48.062;9.930;2023-11-19T09:22:04;7.25;;;4.38;;
72388;SDS011;60566;48.062;9.930;2023-11-19T09:24:30;5.07;;;3.20;;
72388;SDS011;60566;48.062;9.930;2023-11-19T09:26:55;4.32;;;2.60;;
72388;SDS011;60566;48.062;9.930;2023-11-19T09:29:21;3.70;;;2.33;;
72388;SDS011;60566;48.062;9.930;2023-11-19T09:31:46;4.30;;;2.50;;
72388;SDS011;60566;48.062;9.930;2023-11-19T09:34:13;3.88;;;2.30;;
72388;SDS011;60566;48.062;9.930;2023-11-19T09:36:38;4.13;;;3.10;;
72388;SDS011;60566;48.062;9.930;2023-11-19T09:39:04;3.97;;;2.38;;
72388;SDS011;60566;48.062;9.930;2023-11-19T09:41:29;5.82;;;2.80;;
72388;SDS011;60566;48.062;9.930;2023-11-19T09:43:55;3.95;;;2.53;;
72388;SDS011;60566;48.062;9.930;2023-11-19T09:46:20;3.85;;;2.10;;
72388;SDS011;60566;48.062;9.930;2023-11-19T09:48:47;4.10;;;2.13;;
72388;SDS011;60566;48.062;9.930;2023-11-19T09:51:13;2.90;;;1.63;;
72388;SDS011;60566;48.062;9.930;2023-11-19T09:53:39;4.97;;;2.47;;
72388;SDS011;60566;48.062;9.930;2023-11-19T09:56:05;3.40;;;2.10;;
72388;SDS011;60566;48.062;9.930;2023-11-19T09:58:31;3.58;;;2.38;;
72388;SDS011;60566;48.062;9.930;2023-11-19T10:00:56;3.00;;;1.90;;
72388;SDS011;60566;48.062;9.930;2023-11-19T10:03:22;3.70;;;2.53;;
72388;SDS011;60566;48.062;9.930;2023-11-19T10:05:48;6.78;;;2.38;;
72388;SDS011;60566;48.062;9.930;2023-11-19T10:08:15;4.28;;;2.40;;
72388;SDS011;60566;48.062;9.930;2023-11-19T10:10:40;3.58;;;2.17;;
72388;SDS011;60566;48.062;9.930;2023-11-19T10:13:05;4.00;;;2.05;;
72388;SDS011;60566;48.062;9.930;2023-11-19T10:15:33;3.33;;;2.30;;
72388;SDS011;60566;48.062;9.930;2023-11-19T10:18:01;3.80;;;2.17;;
72388;SDS011;60566;48.062;9.930;2023-11-19T10:20:26;3.95;;;2.30;;
72388;SDS011;60566;48.062;9.930;2023-11-19T10:22:52;3.90;;;2.20;;
72388;SDS011;60566;48.062;9.930;2023-11-19T10:25:22;3.00;;;1.73;;
72388;SDS011;60566;48.062;9.930;2023-11-19T10:27:48;3.45;;;2.15;;
72388;SDS011;60566;48.062;9.930;2023-11-19T10:30:14;3.13;;;1.83;;
72388;SDS011;60566;48.062;9.930;2023-11-19T10:32:42;3.00;;;1.90;;
72388;SDS011;60566;48.062;9.930;2023-11-19T10:35:08;3.70;;;2.10;;
72388;SDS011;60566;48.062;9.930;2023-11-19T10:37:33;2.65;;;1.55;;
72388;SDS011;60566;48.062;9.930;2023-11-19T10:39:59;3.78;;;2.13;;
72388;SDS011;60566;48.062;9.930;2023-11-19T10:42:26;3.25;;;2.08;;
72388;SDS011;60566;48.062;9.930;2023-11-19T10:44:51;5.30;;;2.28;;
72388;SDS011;60566;48.062;9.930;2023-11-19T10:47:18;3.70;;;2.42;;
72388;SDS011;60566;48.062;9.930;2023-11-19T10:49:44;3.40;;;2.08;;
72388;SDS011;60566;48.062;9.930;2023-11-19T10:52:09;3.00;;;1.77;;
72388;SDS011;60566;48.062;9.930;2023-11-19T10:54:35;4.20;;;2.47;;
72388;SDS011;60566;48.062;9.930;2023-11-19T10:57:01;3.40;;;2.08;;
72388;SDS011;60566;48.062;9.930;2023-11-19T10:59:29;3.92;;;2.45;;
72388;SDS011;60566;48.062;9.930;2023-11-19T11:01:55;2.97;;;2.00;;
72388;SDS011;60566;48.062;9.930;2023-11-19T11:04:22;4.32;;;2.20;;
72388;SDS011;60566;48.062;9.930;2023-11-19T11:06:49;3.80;;;2.25;;
72388;SDS011;60566;48.062;9.930;2023-11-19T11:09:15;2.42;;;1.63;;
72388;SDS011;60566;48.062;9.930;2023-11-19T11:11:41;2.85;;;1.83;;
72388;SDS011;60566;48.062;9.930;2023-11-19T11:14:12;2.50;;;1.50;;
72388;SDS011;60566;48.062;9.930;2023-11-19T11:16:39;2.22;;;1.50;;
72388;SDS011;60566;48.062;9.930;2023-11-19T11:19:05;2.28;;;1.20;;
72388;SDS011;60566;48.062;9.930;2023-11-19T11:21:30;2.65;;;1.80;;
72388;SDS011;60566;48.062;9.930;2023-11-19T11:24:00;3.72;;;1.85;;
72388;SDS011;60566;48.062;9.930;2023-11-19T11:26:56;2.35;;;1.77;;
72388;SDS011;60566;48.062;9.930;2023-11-19T11:29:35;2.15;;;1.25;;
72388;SDS011;60566;48.062;9.930;2023-11-19T11:32:07;2.38;;;1.45;;
72388;SDS011;60566;48.062;9.930;2023-11-19T11:37:26;2.28;;;1.50;;
72388;SDS011;60566;48.062;9.930;2023-11-19T11:39:57;2.17;;;1.20;;
72388;SDS011;60566;48.062;9.930;2023-11-19T11:42:32;1.67;;;1.17;;
72388;SDS011;60566;48.062;9.930;2023-11-19T11:45:01;2.60;;;1.42;;
72388;SDS011;60566;48.062;9.930;2023-11-19T11:55:51;2.92;;;1.58;;
72388;SDS011;60566;48.062;9.930;2023-11-19T11:58:20;2.10;;;1.50;;
72388;SDS011;60566;48.062;9.930;2023-11-19T12:00:46;2.22;;;1.42;;
72388;SDS011;60566;48.062;9.930;2023-11-19T12:03:13;1.90;;;1.30;;
72388;SDS011;60566;48.062;9.930;2023-11-19T12:05:39;3.20;;;1.48;;
72388;SDS011;60566;48.062;9.930;2023-11-19T12:08:06;3.83;;;1.35;;
72388;SDS011;60566;48.062;9.930;2023-11-19T12:10:34;3.30;;;1.65;;
72388;SDS011;60566;48.062;9.930;2023-11-19T12:13:02;3.65;;;1.75;;
72388;SDS011;60566;48.062;9.930;2023-11-19T12:15:30;4.00;;;2.05;;
72388;SDS011;60566;48.062;9.930;2023-11-19T12:17:58;2.88;;;1.90;;
72388;SDS011;60566;48.062;9.930;2023-11-19T12:22:50;2.97;;;1.58;;
72388;SDS011;60566;48.062;9.930;2023-11-19T12:25:17;2.60;;;1.58;;
72388;SDS011;60566;48.062;9.930;2023-11-19T12:27:43;2.30;;;1.40;;
72388;SDS011;60566;48.062;9.930;2023-11-19T12:30:09;2.22;;;1.52;;
72388;SDS011;60566;48.062;9.930;2023-11-19T12:32:39;3.17;;;1.98;;
72388;SDS011;60566;48.062;9.930;2023-11-19T12:35:05;2.00;;;1.33;;
72388;SDS011;60566;48.062;9.930;2023-11-19T12:37:31;4.38;;;1.58;;
72388;SDS011;60566;48.062;9.930;2023-11-19T12:39:58;2.60;;;0.98;;
72388;SDS011;60566;48.062;9.930;2023-11-19T12:42:34;2.65;;;1.80;;
72388;SDS011;60566;48.062;9.930;2023-11-19T12:45:00;5.53;;;1.67;;
72388;SDS011;60566;48.062;9.930;2023-11-19T12:47:25;2.45;;;1.73;;
72388;SDS011;60566;48.062;9.930;2023-11-19T12:49:57;3.28;;;1.40;;
72388;SDS011;60566;48.062;9.930;2023-11-19T12:52:23;2.78;;;1.50;;
72388;SDS011;60566;48.062;9.930;2023-11-19T12:54:48;1.95;;;1.25;;
72388;SDS011;60566;48.062;9.930;2023-11-19T12:57:15;2.55;;;1.50;;
72388;SDS011;60566;48.062;9.930;2023-11-19T12:59:41;1.80;;;1.13;;
72388;SDS011;60566;48.062;9.930;2023-11-19T13:02:06;1.55;;;1.10;;
72388;SDS011;60566;48.062;9.930;2023-11-19T13:04:32;2.83;;;1.48;;
72388;SDS011;60566;48.062;9.930;2023-11-19T13:06:57;2.85;;;1.58;;
72388;SDS011;60566;48.062;9.930;2023-11-19T13:09:23;2.20;;;1.40;;
72388;SDS011;60566;48.062;9.930;2023-11-19T13:11:48;2.28;;;1.40;;
72388;SDS011;60566;48.062;9.930;2023-11-19T13:14:15;3.22;;;1.58;;
72388;SDS011;60566;48.062;9.930;2023-11-19T13:16:41;2.03;;;1.33;;
72388;SDS011;60566;48.062;9.930;2023-11-19T13:19:06;1.90;;;1.30;;
72388;SDS011;60566;48.062;9.930;2023-11-19T13:21:31;2.22;;;1.10;;
72388;SDS011;60566;48.062;9.930;2023-11-19T13:23:57;2.38;;;1.27;;
72388;SDS011;60566;48.062;9.930;2023-11-19T13:26:23;2.05;;;1.55;;
72388;SDS011;60566;48.062;9.930;2023-11-19T13:28:48;1.65;;;1.30;;
72388;SDS011;60566;48.062;9.930;2023-11-19T13:31:15;1.67;;;1.10;;
72388;SDS011;60566;48.062;9.930;2023-11-19T13:33:40;2.83;;;1.63;;
72388;SDS011;60566;48.062;9.930;2023-11-19T13:36:06;2.05;;;1.00;;
72388;SDS011;60566;48.062;9.930;2023-11-19T13:38:32;3.70;;;0.93;;
72388;SDS011;60566;48.062;9.930;2023-11-19T13:40:57;3.40;;;1.27;;
72388;SDS011;60566;48.062;9.930;2023-11-19T13:43:22;2.15;;;1.17;;
72388;SDS011;60566;48.062;9.930;2023-11-19T13:45:48;2.13;;;1.63;;
72388;SDS011;60566;48.062;9.930;2023-11-19T13:48:14;2.05;;;1.40;;
72388;SDS011;60566;48.062;9.930;2023-11-19T13:50:41;2.08;;;1.42;;
72388;SDS011;60566;48.062;9.930;2023-11-19T13:53:06;2.90;;;1.50;;
72388;SDS011;60566;48.062;9.930;2023-11-19T13:55:32;1.48;;;0.90;;
72388;SDS011;60566;48.062;9.930;2023-11-19T13:57:57;2.47;;;1.40;;
72388;SDS011;60566;48.062;9.930;2023-11-19T14:00:22;2.35;;;1.55;;
72388;SDS011;60566;48.062;9.930;2023-11-19T14:02:48;3.10;;;1.77;;
72388;SDS011;60566;48.062;9.930;2023-11-19T14:05:15;2.72;;;1.73;;
72388;SDS011;60566;48.062;9.930;2023-11-19T14:07:41;2.92;;;1.80;;
72388;SDS011;60566;48.062;9.930;2023-11-19T14:10:06;3.42;;;1.55;;
72388;SDS011;60566;48.062;9.930;2023-11-19T14:12:32;2.70;;;1.60;;
72388;SDS011;60566;48.062;9.930;2023-11-19T14:14:58;2.78;;;1.70;;
72388;SDS011;60566;48.062;9.930;2023-11-19T14:17:23;3.03;;;1.50;;
72388;SDS011;60566;48.062;9.930;2023-11-19T14:19:49;2.15;;;1.10;;
72388;SDS011;60566;48.062;9.930;2023-11-19T14:22:15;3.35;;;1.65;;
72388;SDS011;60566;48.062;9.930;2023-11-19T14:24:41;2.80;;;1.50;;
72388;SDS011;60566;48.062;9.930;2023-11-19T14:27:06;2.97;;;1.40;;
72388;SDS011;60566;48.062;9.930;2023-11-19T14:29:32;2.83;;;1.52;;
72388;SDS011;60566;48.062;9.930;2023-11-19T14:31:57;2.22;;;1.60;;
72388;SDS011;60566;48.062;9.930;2023-11-19T14:34:22;3.38;;;1.55;;
72388;SDS011;60566;48.062;9.930;2023-11-19T14:36:48;3.28;;;1.48;;
72388;SDS011;60566;48.062;9.930;2023-11-19T14:39:15;2.22;;;1.33;;
72388;SDS011;60566;48.062;9.930;2023-11-19T14:41:40;2.33;;;1.40;;
72388;SDS011;60566;48.062;9.930;2023-11-19T14:44:05;1.98;;;1.40;;
72388;SDS011;60566;48.062;9.930;2023-11-19T14:46:31;3.80;;;1.20;;
72388;SDS011;60566;48.062;9.930;2023-11-19T14:48:56;2.50;;;1.40;;
72388;SDS011;60566;48.062;9.930;2023-11-19T14:51:21;3.13;;;2.03;;
72388;SDS011;60566;48.062;9.930;2023-11-19T14:53:47;2.30;;;1.25;;